sensor_id;sensor_type;location;lat;lon;timestamp;pressure;altitude;pressure_sealevel;temperature;humidity
16664;BME280;8445;51.270;9.434;2023-08-12T00:02:07;99742.50;;;17.27;72.62
16664;BME280;8445;51.270;9.434;2023-08-12T00:04:48;99746.59;;;17.30;72.30
16664;BME280;8445;51.270;9.434;2023-08-12T00:07:33;99745.56;;;17.31;72.28
16664;BME280;8445;51.270;9.434;2023-08-12T00:10:29;99740.75;;;17.33;72.76
16664;BME280;8445;51.270;9.434;2023-08-12T00:13:30;99742.88;;;17.31;72.71
16664;BME280;8445;51.270;9.434;2023-08-12T00:16:05;99735.84;;;17.30;72.13
16664;BME280;8445;51.270;9.434;2023-08-12T00:18:42;99728.59;;;17.30;72.20
16664;BME280;8445;51.270;9.434;2023-08-12T00:21:12;99738.06;;;17.33;72.48
16664;BME280;8445;51.270;9.434;2023-08-12T00:23:50;99731.63;;;17.34;72.83
16664;BME280;8445;51.270;9.434;2023-08-12T00:26:27;99726.25;;;17.34;72.61
16664;BME280;8445;51.270;9.434;2023-08-12T00:29:17;99728.50;;;17.37;72.64
16664;BME280;8445;51.270;9.434;2023-08-12T00:31:59;99728.50;;;17.37;72.61
16664;BME280;8445;51.270;9.434;2023-08-12T00:34:31;99729.09;;;17.39;72.55
16664;BME280;8445;51.270;9.434;2023-08-12T00:37:28;99727.44;;;17.38;72.47
16664;BME280;8445;51.270;9.434;2023-08-12T00:40:17;99714.22;;;17.36;72.47
16664;BME280;8445;51.270;9.434;2023-08-12T00:42:45;99716.06;;;17.36;72.76
16664;BME280;8445;51.270;9.434;2023-08-12T00:45:30;99717.13;;;17.35;73.04
16664;BME280;8445;51.270;9.434;2023-08-12T00:47:58;99719.59;;;17.36;72.99
16664;BME280;8445;51.270;9.434;2023-08-12T00:50:51;99721.00;;;17.39;73.54
16664;BME280;8445;51.270;9.434;2023-08-12T00:53:26;99717.50;;;17.38;73.34
16664;BME280;8445;51.270;9.434;2023-08-12T00:55:53;99709.44;;;17.38;73.61
16664;BME280;8445;51.270;9.434;2023-08-12T00:58:31;99709.66;;;17.37;73.46
16664;BME280;8445;51.270;9.434;2023-08-12T01:01:12;99716.69;;;17.38;73.72
16664;BME280;8445;51.270;9.434;2023-08-12T01:03:52;99699.09;;;17.35;73.70
16664;BME280;8445;51.270;9.434;2023-08-12T01:06:26;99699.91;;;17.36;73.39
16664;BME280;8445;51.270;9.434;2023-08-12T01:09:18;99693.72;;;17.35;73.61
16664;BME280;8445;51.270;9.434;2023-08-12T01:12:06;99694.53;;;17.36;73.87
16664;BME280;8445;51.270;9.434;2023-08-12T01:14:56;99690.56;;;17.38;73.48
16664;BME280;8445;51.270;9.434;2023-08-12T01:17:42;99689.75;;;17.38;73.71
16664;BME280;8445;51.270;9.434;2023-08-12T01:20:11;99679.81;;;17.38;73.54
16664;BME280;8445;51.270;9.434;2023-08-12T01:22:44;99681.22;;;17.41;73.60
16664;BME280;8445;51.270;9.434;2023-08-12T01:25:13;99678.06;;;17.44;73.71
16664;BME280;8445;51.270;9.434;2023-08-12T01:27:44;99669.97;;;17.44;73.66
16664;BME280;8445;51.270;9.434;2023-08-12T01:30:30;99676.75;;;17.47;73.87
16664;BME280;8445;51.270;9.434;2023-08-12T01:36:24;99670.47;;;17.53;74.43
16664;BME280;8445;51.270;9.434;2023-08-12T01:38:56;99659.47;;;17.54;74.15
16664;BME280;8445;51.270;9.434;2023-08-12T01:41:30;99662.28;;;17.59;74.26
16664;BME280;8445;51.270;9.434;2023-08-12T01:44:04;99662.41;;;17.64;74.25
16664;BME280;8445;51.270;9.434;2023-08-12T01:46:35;99663.00;;;17.66;74.08
16664;BME280;8445;51.270;9.434;2023-08-12T01:49:32;99660.69;;;17.70;74.42
16664;BME280;8445;51.270;9.434;2023-08-12T01:52:11;99657.28;;;17.75;73.83
16664;BME280;8445;51.270;9.434;2023-08-12T01:54:51;99661.41;;;17.77;73.80
16664;BME280;8445;51.270;9.434;2023-08-12T02:00:17;99656.84;;;17.78;74.07
16664;BME280;8445;51.270;9.434;2023-08-12T02:02:47;99649.81;;;17.77;74.16
16664;BME280;8445;51.270;9.434;2023-08-12T02:05:39;99651.66;;;17.76;74.21
16664;BME280;8445;51.270;9.434;2023-08-12T02:14:06;99648.75;;;17.78;74.26
16664;BME280;8445;51.270;9.434;2023-08-12T02:16:56;99641.50;;;17.78;74.23
16664;BME280;8445;51.270;9.434;2023-08-12T02:19:38;99645.59;;;17.81;74.58
16664;BME280;8445;51.270;9.434;2023-08-12T02:22:10;99650.50;;;17.84;74.30
16664;BME280;8445;51.270;9.434;2023-08-12T02:24:38;99644.28;;;17.83;74.18
16664;BME280;8445;51.270;9.434;2023-08-12T02:33:38;99642.91;;;17.92;74.57
16664;BME280;8445;51.270;9.434;2023-08-12T02:36:16;99645.13;;;17.95;74.36
16664;BME280;8445;51.270;9.434;2023-08-12T02:38:51;99626.25;;;17.95;74.58
16664;BME280;8445;51.270;9.434;2023-08-12T02:41:25;99637.59;;;17.97;74.56
16664;BME280;8445;51.270;9.434;2023-08-12T02:47:17;99646.28;;;17.99;74.56
16664;BME280;8445;51.270;9.434;2023-08-12T02:49:53;99648.72;;;18.01;74.89
16664;BME280;8445;51.270;9.434;2023-08-12T02:52:36;99652.25;;;18.01;75.00
16664;BME280;8445;51.270;9.434;2023-08-12T02:55:14;99655.41;;;17.98;74.88
16664;BME280;8445;51.270;9.434;2023-08-12T02:57:46;99654.59;;;17.98;75.47
16664;BME280;8445;51.270;9.434;2023-08-12T03:00:15;99660.81;;;17.98;75.53
16664;BME280;8445;51.270;9.434;2023-08-12T03:02:45;99655.41;;;17.98;75.46
16664;BME280;8445;51.270;9.434;2023-08-12T03:05:13;99659.75;;;17.99;75.60
16664;BME280;8445;51.270;9.434;2023-08-12T03:07:43;99667.84;;;17.99;76.00
16664;BME280;8445;51.270;9.434;2023-08-12T03:10:10;99669.72;;;17.99;76.09
16664;BME280;8445;51.270;9.434;2023-08-12T03:12:39;99664.81;;;17.96;76.16
16664;BME280;8445;51.270;9.434;2023-08-12T03:15:10;99676.06;;;17.93;76.34
16664;BME280;8445;51.270;9.434;2023-08-12T03:17:41;99670.91;;;17.91;76.49
16664;BME280;8445;51.270;9.434;2023-08-12T03:20:13;99676.53;;;17.90;76.21
16664;BME280;8445;51.270;9.434;2023-08-12T03:22:40;99674.28;;;17.87;76.39
16664;BME280;8445;51.270;9.434;2023-08-12T03:25:09;99668.31;;;17.85;76.84
16664;BME280;8445;51.270;9.434;2023-08-12T03:27:44;99669.59;;;17.82;77.03
16664;BME280;8445;51.270;9.434;2023-08-12T03:30:18;99671.72;;;17.80;77.09
16664;BME280;8445;51.270;9.434;2023-08-12T03:32:48;99680.03;;;17.79;76.74
16664;BME280;8445;51.270;9.434;2023-08-12T03:35:35;99665.13;;;17.76;77.27
16664;BME280;8445;51.270;9.434;2023-08-12T03:38:19;99674.50;;;17.73;77.13
16664;BME280;8445;51.270;9.434;2023-08-12T03:41:17;99676.03;;;17.69;77.39
16664;BME280;8445;51.270;9.434;2023-08-12T03:44:02;99679.97;;;17.67;77.30
16664;BME280;8445;51.270;9.434;2023-08-12T03:46:36;99684.78;;;17.65;77.34
16664;BME280;8445;51.270;9.434;2023-08-12T03:53:06;99694.81;;;17.58;77.44
16664;BME280;8445;51.270;9.434;2023-08-12T03:55:53;99699.41;;;17.57;77.42
16664;BME280;8445;51.270;9.434;2023-08-12T03:58:46;99697.75;;;17.56;77.36
16664;BME280;8445;51.270;9.434;2023-08-12T04:01:25;99698.81;;;17.55;77.57
16664;BME280;8445;51.270;9.434;2023-08-12T04:04:21;99709.59;;;17.55;77.48
16664;BME280;8445;51.270;9.434;2023-08-12T04:07:21;99702.78;;;17.53;78.07
16664;BME280;8445;51.270;9.434;2023-08-12T04:10:14;99718.72;;;17.54;77.80
16664;BME280;8445;51.270;9.434;2023-08-12T04:12:57;99720.81;;;17.52;77.91
16664;BME280;8445;51.270;9.434;2023-08-12T04:15:26;99709.47;;;17.50;77.98
16664;BME280;8445;51.270;9.434;2023-08-12T04:18:18;99716.25;;;17.53;78.89
16664;BME280;8445;51.270;9.434;2023-08-12T04:21:22;99708.53;;;17.56;78.69
16664;BME280;8445;51.270;9.434;2023-08-12T04:24:20;99702.66;;;17.59;78.56
16664;BME280;8445;51.270;9.434;2023-08-12T04:27:13;99688.72;;;17.62;78.00
16664;BME280;8445;51.270;9.434;2023-08-12T04:30:21;99682.31;;;17.63;78.54
16664;BME280;8445;51.270;9.434;2023-08-12T04:33:30;99674.81;;;17.65;78.49
16664;BME280;8445;51.270;9.434;2023-08-12T04:39:15;99666.88;;;17.70;77.91
16664;BME280;8445;51.270;9.434;2023-08-12T04:42:45;99668.88;;;17.75;78.21
16664;BME280;8445;51.270;9.434;2023-08-12T04:45:24;99669.84;;;17.81;77.52
16664;BME280;8445;51.270;9.434;2023-08-12T04:48:14;99666.09;;;17.93;77.69
16664;BME280;8445;51.270;9.434;2023-08-12T04:50:49;99661.28;;;18.07;77.30
16664;BME280;8445;51.270;9.434;2023-08-12T04:53:49;99644.06;;;18.20;77.17
16664;BME280;8445;51.270;9.434;2023-08-12T04:56:54;99644.13;;;18.37;77.26
16664;BME280;8445;51.270;9.434;2023-08-12T04:59:45;99644.34;;;18.47;77.39
16664;BME280;8445;51.270;9.434;2023-08-12T05:02:50;99646.31;;;18.51;77.04
16664;BME280;8445;51.270;9.434;2023-08-12T05:06:00;99657.31;;;18.61;77.69
16664;BME280;8445;51.270;9.434;2023-08-12T05:12:52;99660.38;;;19.51;75.71
16664;BME280;8445;51.270;9.434;2023-08-12T05:16:11;99657.91;;;19.99;74.61
16664;BME280;8445;51.270;9.434;2023-08-12T05:19:10;99670.53;;;20.11;74.55
16664;BME280;8445;51.270;9.434;2023-08-12T05:21:49;99672.31;;;20.22;74.65
16664;BME280;8445;51.270;9.434;2023-08-12T05:24:22;99668.47;;;20.40;74.53
16664;BME280;8445;51.270;9.434;2023-08-12T05:26:54;99666.66;;;20.62;74.14
16664;BME280;8445;51.270;9.434;2023-08-12T05:29:39;99663.31;;;20.77;74.11
16664;BME280;8445;51.270;9.434;2023-08-12T05:32:17;99662.28;;;20.83;74.14
16664;BME280;8445;51.270;9.434;2023-08-12T05:35:15;99656.25;;;20.76;74.35
16664;BME280;8445;51.270;9.434;2023-08-12T05:37:44;99654.44;;;20.59;75.06
16664;BME280;8445;51.270;9.434;2023-08-12T05:40:23;99659.66;;;20.27;75.74
16664;BME280;8445;51.270;9.434;2023-08-12T05:43:03;99665.63;;;20.07;76.28
16664;BME280;8445;51.270;9.434;2023-08-12T05:48:19;99662.03;;;19.85;76.67
16664;BME280;8445;51.270;9.434;2023-08-12T05:51:06;99665.38;;;19.75;76.80
16664;BME280;8445;51.270;9.434;2023-08-12T05:53:41;99663.34;;;19.66;76.89
16664;BME280;8445;51.270;9.434;2023-08-12T05:56:10;99660.56;;;19.61;76.92
16664;BME280;8445;51.270;9.434;2023-08-12T06:02:06;99647.25;;;19.42;77.15
16664;BME280;8445;51.270;9.434;2023-08-12T06:04:49;99647.56;;;19.29;77.51
16664;BME280;8445;51.270;9.434;2023-08-12T06:07:46;99653.34;;;19.21;77.61
16664;BME280;8445;51.270;9.434;2023-08-12T06:10:46;99649.50;;;19.17;77.71
16664;BME280;8445;51.270;9.434;2023-08-12T06:13:17;99644.09;;;19.17;77.62
16664;BME280;8445;51.270;9.434;2023-08-12T06:16:10;99636.75;;;19.12;77.89
16664;BME280;8445;51.270;9.434;2023-08-12T06:19:57;99621.66;;;19.00;78.30
16664;BME280;8445;51.270;9.434;2023-08-12T06:22:59;99637.19;;;18.93;78.29
16664;BME280;8445;51.270;9.434;2023-08-12T06:25:38;99617.63;;;18.85;78.18
16664;BME280;8445;51.270;9.434;2023-08-12T06:28:37;99623.03;;;18.85;78.22
16664;BME280;8445;51.270;9.434;2023-08-12T06:31:15;99612.31;;;18.90;78.29
16664;BME280;8445;51.270;9.434;2023-08-12T06:33:44;99616.84;;;19.02;77.82
16664;BME280;8445;51.270;9.434;2023-08-12T06:36:17;99608.25;;;19.22;77.39
16664;BME280;8445;51.270;9.434;2023-08-12T06:38:43;99613.84;;;19.48;76.95
16664;BME280;8445;51.270;9.434;2023-08-12T06:41:19;99602.19;;;19.98;75.90
16664;BME280;8445;51.270;9.434;2023-08-12T06:44:04;99613.25;;;20.79;74.16
16664;BME280;8445;51.270;9.434;2023-08-12T06:46:44;99607.66;;;21.45;73.00
16664;BME280;8445;51.270;9.434;2023-08-12T06:49:16;99611.66;;;22.06;71.85
16664;BME280;8445;51.270;9.434;2023-08-12T06:51:48;99610.03;;;22.78;70.96
16664;BME280;8445;51.270;9.434;2023-08-12T06:54:19;99599.56;;;23.38;69.99
16664;BME280;8445;51.270;9.434;2023-08-12T06:57:09;99592.19;;;23.84;69.51
16664;BME280;8445;51.270;9.434;2023-08-12T06:59:39;99587.13;;;24.42;68.43
16664;BME280;8445;51.270;9.434;2023-08-12T07:02:08;99584.59;;;24.61;68.36
16664;BME280;8445;51.270;9.434;2023-08-12T07:04:47;99586.56;;;24.94;67.74
16664;BME280;8445;51.270;9.434;2023-08-12T07:07:18;99587.72;;;25.27;67.19
16664;BME280;8445;51.270;9.434;2023-08-12T07:09:47;99590.81;;;25.50;67.13
16664;BME280;8445;51.270;9.434;2023-08-12T07:12:20;99583.16;;;25.52;67.22
16664;BME280;8445;51.270;9.434;2023-08-12T07:15:01;99590.34;;;25.43;66.63
16664;BME280;8445;51.270;9.434;2023-08-12T07:20:55;99579.16;;;25.05;67.69
16664;BME280;8445;51.270;9.434;2023-08-12T07:23:42;99589.16;;;24.75;68.34
16664;BME280;8445;51.270;9.434;2023-08-12T07:26:38;99596.94;;;24.43;69.19
16664;BME280;8445;51.270;9.434;2023-08-12T07:29:23;99588.00;;;24.32;69.20
16664;BME280;8445;51.270;9.434;2023-08-12T07:32:01;99591.19;;;24.50;68.28
16664;BME280;8445;51.270;9.434;2023-08-12T07:34:50;99594.84;;;24.84;67.51
16664;BME280;8445;51.270;9.434;2023-08-12T07:37:22;99593.09;;;24.98;66.94
16664;BME280;8445;51.270;9.434;2023-08-12T07:40:28;99589.56;;;24.98;67.20
16664;BME280;8445;51.270;9.434;2023-08-12T07:43:46;99592.69;;;25.54;66.19
16664;BME280;8445;51.270;9.434;2023-08-12T07:46:21;99593.72;;;26.40;64.01
16664;BME280;8445;51.270;9.434;2023-08-12T07:49:05;99589.59;;;27.04;62.65
16664;BME280;8445;51.270;9.434;2023-08-12T07:52:27;99577.88;;;27.50;61.83
16664;BME280;8445;51.270;9.434;2023-08-12T07:55:09;99581.75;;;27.63;62.21
16664;BME280;8445;51.270;9.434;2023-08-12T07:57:58;99572.53;;;27.59;62.28
16664;BME280;8445;51.270;9.434;2023-08-12T08:00:34;99583.41;;;26.94;64.30
16664;BME280;8445;51.270;9.434;2023-08-12T08:03:06;99582.22;;;26.19;65.72
16664;BME280;8445;51.270;9.434;2023-08-12T08:05:58;99585.91;;;25.52;67.08
16664;BME280;8445;51.270;9.434;2023-08-12T08:08:24;99584.03;;;25.13;67.60
16664;BME280;8445;51.270;9.434;2023-08-12T08:11:01;99585.56;;;24.85;67.92
16664;BME280;8445;51.270;9.434;2023-08-12T08:13:33;99594.59;;;24.70;67.84
16664;BME280;8445;51.270;9.434;2023-08-12T08:16:02;99591.88;;;24.75;67.81
16664;BME280;8445;51.270;9.434;2023-08-12T08:18:28;99597.56;;;24.84;67.22
16664;BME280;8445;51.270;9.434;2023-08-12T08:24:17;99595.78;;;24.54;68.10
16664;BME280;8445;51.270;9.434;2023-08-12T08:26:48;99592.16;;;24.69;67.74
16664;BME280;8445;51.270;9.434;2023-08-12T08:29:30;99587.44;;;24.90;66.86
16664;BME280;8445;51.270;9.434;2023-08-12T08:31:57;99589.44;;;25.52;65.65
16664;BME280;8445;51.270;9.434;2023-08-12T08:34:31;99575.22;;;26.56;63.26
16664;BME280;8445;51.270;9.434;2023-08-12T08:37:02;99570.72;;;26.84;62.86
16664;BME280;8445;51.270;9.434;2023-08-12T08:39:34;99572.66;;;27.02;62.16
16664;BME280;8445;51.270;9.434;2023-08-12T08:42:20;99563.81;;;27.24;61.66
16664;BME280;8445;51.270;9.434;2023-08-12T08:44:58;99559.88;;;27.63;61.43
16664;BME280;8445;51.270;9.434;2023-08-12T08:47:50;99558.34;;;28.31;59.80
16664;BME280;8445;51.270;9.434;2023-08-12T08:50:37;99556.75;;;28.66;59.84
16664;BME280;8445;51.270;9.434;2023-08-12T08:53:32;99556.66;;;29.29;58.46
16664;BME280;8445;51.270;9.434;2023-08-12T08:56:16;99552.50;;;30.51;55.59
16664;BME280;8445;51.270;9.434;2023-08-12T08:58:46;99548.34;;;31.40;53.74
16664;BME280;8445;51.270;9.434;2023-08-12T09:04:28;99561.25;;;31.57;53.69
16664;BME280;8445;51.270;9.434;2023-08-12T09:07:20;99560.16;;;31.40;54.48
16664;BME280;8445;51.270;9.434;2023-08-12T09:10:00;99565.16;;;31.38;54.00
16664;BME280;8445;51.270;9.434;2023-08-12T09:12:56;99564.81;;;31.57;53.89
16664;BME280;8445;51.270;9.434;2023-08-12T09:15:31;99554.75;;;31.61;53.56
16664;BME280;8445;51.270;9.434;2023-08-12T09:18:19;99541.03;;;31.44;54.06
16664;BME280;8445;51.270;9.434;2023-08-12T09:21:08;99539.56;;;31.38;53.94
16664;BME280;8445;51.270;9.434;2023-08-12T09:24:19;99540.06;;;31.40;54.22
16664;BME280;8445;51.270;9.434;2023-08-12T09:27:26;99529.16;;;31.61;53.23
16664;BME280;8445;51.270;9.434;2023-08-12T09:30:27;99531.31;;;31.93;52.50
16664;BME280;8445;51.270;9.434;2023-08-12T09:33:29;99532.66;;;32.46;51.31
16664;BME280;8445;51.270;9.434;2023-08-12T09:36:33;99541.09;;;32.91;49.86
16664;BME280;8445;51.270;9.434;2023-08-12T09:39:34;99545.06;;;33.03;50.47
16664;BME280;8445;51.270;9.434;2023-08-12T09:42:18;99547.41;;;32.92;51.14
16664;BME280;8445;51.270;9.434;2023-08-12T09:44:53;99539.13;;;32.92;50.77
16664;BME280;8445;51.270;9.434;2023-08-12T09:47:36;99522.72;;;32.24;51.74
16664;BME280;8445;51.270;9.434;2023-08-12T09:53:02;99525.66;;;32.49;50.75
16664;BME280;8445;51.270;9.434;2023-08-12T09:55:42;99523.25;;;32.89;49.71
16664;BME280;8445;51.270;9.434;2023-08-12T09:58:21;99527.53;;;32.78;49.52
16664;BME280;8445;51.270;9.434;2023-08-12T10:01:39;99534.31;;;32.39;50.25
16664;BME280;8445;51.270;9.434;2023-08-12T10:04:51;99536.34;;;32.71;49.81
16664;BME280;8445;51.270;9.434;2023-08-12T10:07:27;99526.53;;;32.11;51.07
16664;BME280;8445;51.270;9.434;2023-08-12T10:10:09;99535.72;;;31.13;52.62
16664;BME280;8445;51.270;9.434;2023-08-12T10:12:58;99536.19;;;30.98;52.24
16664;BME280;8445;51.270;9.434;2023-08-12T10:15:53;99532.00;;;31.00;51.77
16664;BME280;8445;51.270;9.434;2023-08-12T10:18:57;99529.22;;;31.09;51.37
16664;BME280;8445;51.270;9.434;2023-08-12T10:21:35;99524.88;;;31.08;51.51
16664;BME280;8445;51.270;9.434;2023-08-12T10:24:45;99520.31;;;30.51;52.70
16664;BME280;8445;51.270;9.434;2023-08-12T10:27:43;99520.97;;;30.48;52.37
16664;BME280;8445;51.270;9.434;2023-08-12T10:30:38;99525.69;;;30.91;51.89
16664;BME280;8445;51.270;9.434;2023-08-12T10:33:09;99519.63;;;31.50;50.39
16664;BME280;8445;51.270;9.434;2023-08-12T10:35:48;99517.19;;;31.57;50.29
16664;BME280;8445;51.270;9.434;2023-08-12T10:38:23;99530.34;;;31.42;50.64
16664;BME280;8445;51.270;9.434;2023-08-12T10:41:23;99521.75;;;31.44;50.72
16664;BME280;8445;51.270;9.434;2023-08-12T10:44:14;99518.44;;;31.68;49.90
16664;BME280;8445;51.270;9.434;2023-08-12T10:47:09;99518.25;;;31.82;50.04
16664;BME280;8445;51.270;9.434;2023-08-12T10:49:51;99516.00;;;32.04;49.68
16664;BME280;8445;51.270;9.434;2023-08-12T10:52:44;99507.38;;;31.85;50.30
16664;BME280;8445;51.270;9.434;2023-08-12T10:55:35;99513.16;;;31.54;51.02
16664;BME280;8445;51.270;9.434;2023-08-12T10:58:34;99519.53;;;31.29;51.50
16664;BME280;8445;51.270;9.434;2023-08-12T11:01:17;99510.28;;;31.25;51.27
16664;BME280;8445;51.270;9.434;2023-08-12T11:03:48;99505.94;;;31.70;50.23
16664;BME280;8445;51.270;9.434;2023-08-12T11:06:23;99505.63;;;32.60;48.56
16664;BME280;8445;51.270;9.434;2023-08-12T11:09:01;99513.41;;;33.33;47.49
16664;BME280;8445;51.270;9.434;2023-08-12T11:11:33;99516.59;;;33.56;47.18
16664;BME280;8445;51.270;9.434;2023-08-12T11:14:14;99510.81;;;33.61;47.01
16664;BME280;8445;51.270;9.434;2023-08-12T11:16:55;99516.47;;;33.65;46.63
16664;BME280;8445;51.270;9.434;2023-08-12T11:19:40;99520.47;;;33.43;46.69
16664;BME280;8445;51.270;9.434;2023-08-12T11:22:32;99521.75;;;33.45;47.34
16664;BME280;8445;51.270;9.434;2023-08-12T11:25:30;99509.78;;;33.41;47.47
16664;BME280;8445;51.270;9.434;2023-08-12T11:28:14;99508.22;;;32.78;48.30
16664;BME280;8445;51.270;9.434;2023-08-12T11:31:04;99511.00;;;32.36;48.77
16664;BME280;8445;51.270;9.434;2023-08-12T11:33:52;99515.06;;;32.00;49.78
16664;BME280;8445;51.270;9.434;2023-08-12T11:36:56;99519.66;;;32.17;48.96
16664;BME280;8445;51.270;9.434;2023-08-12T11:42:54;99509.94;;;32.49;48.15
16664;BME280;8445;51.270;9.434;2023-08-12T11:46:05;99506.59;;;33.31;46.66
16664;BME280;8445;51.270;9.434;2023-08-12T11:48:43;99499.75;;;33.49;46.17
16664;BME280;8445;51.270;9.434;2023-08-12T11:54:37;99495.53;;;33.76;45.46
16664;BME280;8445;51.270;9.434;2023-08-12T11:57:06;99486.66;;;33.46;45.50
16664;BME280;8445;51.270;9.434;2023-08-12T11:59:33;99497.88;;;32.96;46.67
16664;BME280;8445;51.270;9.434;2023-08-12T12:02:05;99477.69;;;32.41;47.41
16664;BME280;8445;51.270;9.434;2023-08-12T12:04:40;99483.34;;;31.94;48.14
16664;BME280;8445;51.270;9.434;2023-08-12T12:07:27;99476.03;;;31.52;48.53
16664;BME280;8445;51.270;9.434;2023-08-12T12:10:19;99465.31;;;31.12;49.16
16664;BME280;8445;51.270;9.434;2023-08-12T12:13:11;99477.63;;;30.97;49.32
16664;BME280;8445;51.270;9.434;2023-08-12T12:15:59;99468.31;;;31.36;48.08
16664;BME280;8445;51.270;9.434;2023-08-12T12:18:43;99472.50;;;32.19;46.87
16664;BME280;8445;51.270;9.434;2023-08-12T12:21:32;99463.47;;;32.93;45.48
16664;BME280;8445;51.270;9.434;2023-08-12T12:24:20;99459.94;;;33.62;44.00
16664;BME280;8445;51.270;9.434;2023-08-12T12:27:16;99451.06;;;34.05;43.61
16664;BME280;8445;51.270;9.434;2023-08-12T12:29:50;99455.22;;;34.24;43.68
16664;BME280;8445;51.270;9.434;2023-08-12T12:32:40;99448.94;;;34.51;43.47
16664;BME280;8445;51.270;9.434;2023-08-12T12:35:28;99444.09;;;34.76;42.56
16664;BME280;8445;51.270;9.434;2023-08-12T12:38:01;99441.47;;;34.67;43.07
16664;BME280;8445;51.270;9.434;2023-08-12T12:40:36;99451.47;;;34.32;44.10
16664;BME280;8445;51.270;9.434;2023-08-12T12:43:19;99464.81;;;35.10;42.68
16664;BME280;8445;51.270;9.434;2023-08-12T12:46:23;99449.81;;;35.11;42.74
16664;BME280;8445;51.270;9.434;2023-08-12T12:48:52;99439.88;;;34.38;43.90
16664;BME280;8445;51.270;9.434;2023-08-12T12:51:26;99442.47;;;33.70;44.64
16664;BME280;8445;51.270;9.434;2023-08-12T12:54:05;99430.38;;;33.63;44.32
16664;BME280;8445;51.270;9.434;2023-08-12T12:56:59;99457.78;;;33.68;44.83
16664;BME280;8445;51.270;9.434;2023-08-12T12:59:44;99467.06;;;33.51;44.45
16664;BME280;8445;51.270;9.434;2023-08-12T13:02:27;99464.44;;;33.42;44.38
16664;BME280;8445;51.270;9.434;2023-08-12T13:12:06;99482.78;;;32.93;44.86
16664;BME280;8445;51.270;9.434;2023-08-12T13:14:51;99465.34;;;33.34;44.39
16664;BME280;8445;51.270;9.434;2023-08-12T13:17:31;99467.94;;;32.85;45.08
16664;BME280;8445;51.270;9.434;2023-08-12T13:20:20;99469.44;;;32.12;46.43
16664;BME280;8445;51.270;9.434;2023-08-12T13:23:02;99462.94;;;31.87;46.79
16664;BME280;8445;51.270;9.434;2023-08-12T13:25:41;99456.47;;;31.53;47.51
16664;BME280;8445;51.270;9.434;2023-08-12T13:28:23;99462.91;;;31.57;47.51
16664;BME280;8445;51.270;9.434;2023-08-12T13:31:01;99454.94;;;32.23;46.07
16664;BME280;8445;51.270;9.434;2023-08-12T13:33:52;99453.69;;;32.62;45.30
16664;BME280;8445;51.270;9.434;2023-08-12T13:36:36;99447.56;;;31.86;46.83
16664;BME280;8445;51.270;9.434;2023-08-12T13:39:09;99449.28;;;31.14;48.25
16664;BME280;8445;51.270;9.434;2023-08-12T13:41:55;99460.81;;;30.55;49.33
16664;BME280;8445;51.270;9.434;2023-08-12T13:44:37;99459.34;;;30.06;49.88
16664;BME280;8445;51.270;9.434;2023-08-12T13:47:06;99461.94;;;30.28;49.41
16664;BME280;8445;51.270;9.434;2023-08-12T13:50:11;99462.84;;;31.74;46.46
16664;BME280;8445;51.270;9.434;2023-08-12T13:53:06;99461.88;;;32.71;44.70
16664;BME280;8445;51.270;9.434;2023-08-12T13:55:43;99462.00;;;32.96;44.61
16664;BME280;8445;51.270;9.434;2023-08-12T13:58:40;99462.75;;;32.42;45.99
16664;BME280;8445;51.270;9.434;2023-08-12T14:01:12;99451.56;;;32.47;45.93
16664;BME280;8445;51.270;9.434;2023-08-12T14:04:02;99449.16;;;32.16;46.26
16664;BME280;8445;51.270;9.434;2023-08-12T14:06:34;99451.56;;;32.47;45.64
16664;BME280;8445;51.270;9.434;2023-08-12T14:09:26;99459.72;;;32.77;45.26
16664;BME280;8445;51.270;9.434;2023-08-12T14:12:20;99452.81;;;33.49;44.16
16664;BME280;8445;51.270;9.434;2023-08-12T14:15:08;99445.78;;;34.00;43.28
16664;BME280;8445;51.270;9.434;2023-08-12T14:20:56;99427.06;;;33.94;43.69
16664;BME280;8445;51.270;9.434;2023-08-12T14:23:37;99427.19;;;34.37;43.01
16664;BME280;8445;51.270;9.434;2023-08-12T14:26:27;99415.25;;;34.61;42.98
16664;BME280;8445;51.270;9.434;2023-08-12T14:29:25;99427.16;;;33.61;44.58
16664;BME280;8445;51.270;9.434;2023-08-12T14:32:01;99426.56;;;32.98;45.41
16664;BME280;8445;51.270;9.434;2023-08-12T14:37:22;99412.31;;;32.62;45.99
16664;BME280;8445;51.270;9.434;2023-08-12T14:40:01;99419.00;;;32.41;46.06
16664;BME280;8445;51.270;9.434;2023-08-12T14:42:39;99413.84;;;31.89;47.06
16664;BME280;8445;51.270;9.434;2023-08-12T14:45:17;99399.78;;;31.52;47.61
16664;BME280;8445;51.270;9.434;2023-08-12T14:48:06;99405.69;;;31.33;47.64
16664;BME280;8445;51.270;9.434;2023-08-12T14:51:02;99409.88;;;30.15;49.59
16664;BME280;8445;51.270;9.434;2023-08-12T14:53:43;99403.53;;;29.40;51.45
16664;BME280;8445;51.270;9.434;2023-08-12T14:56:20;99401.72;;;28.82;52.56
16664;BME280;8445;51.270;9.434;2023-08-12T14:59:09;99412.34;;;28.97;51.87
16664;BME280;8445;51.270;9.434;2023-08-12T15:01:55;99399.81;;;30.01;50.46
16664;BME280;8445;51.270;9.434;2023-08-12T15:04:50;99388.66;;;31.69;47.41
16664;BME280;8445;51.270;9.434;2023-08-12T15:07:24;99389.06;;;31.51;48.29
16664;BME280;8445;51.270;9.434;2023-08-12T15:10:31;99395.81;;;30.34;50.51
16664;BME280;8445;51.270;9.434;2023-08-12T15:13:27;99392.75;;;30.26;50.48
16664;BME280;8445;51.270;9.434;2023-08-12T15:16:28;99397.28;;;30.48;49.78
16664;BME280;8445;51.270;9.434;2023-08-12T15:19:50;99400.84;;;30.23;50.13
16664;BME280;8445;51.270;9.434;2023-08-12T15:22:51;99386.22;;;29.88;50.98
16664;BME280;8445;51.270;9.434;2023-08-12T15:26:13;99396.47;;;30.48;49.67
16664;BME280;8445;51.270;9.434;2023-08-12T15:29:46;99389.81;;;30.75;49.31
16664;BME280;8445;51.270;9.434;2023-08-12T15:32:57;99381.44;;;30.28;50.31
16664;BME280;8445;51.270;9.434;2023-08-12T15:39:17;99382.25;;;30.63;50.19
16664;BME280;8445;51.270;9.434;2023-08-12T15:46:17;99375.75;;;30.50;50.52
16664;BME280;8445;51.270;9.434;2023-08-12T15:48:55;99372.94;;;30.85;49.51
16664;BME280;8445;51.270;9.434;2023-08-12T15:52:38;99385.28;;;30.79;49.95
16664;BME280;8445;51.270;9.434;2023-08-12T15:59:28;99383.59;;;31.04;49.69
16664;BME280;8445;51.270;9.434;2023-08-12T16:02:11;99380.84;;;31.80;48.18
16664;BME280;8445;51.270;9.434;2023-08-12T16:08:48;99391.22;;;31.45;48.45